createdAt,value
2022-10-02T00:00:43.683Z,81.40
2022-10-02T00:03:49.985Z,81.50
2022-10-02T00:06:57.554Z,81.60
2022-10-02T00:10:08.011Z,81.60
2022-10-02T00:13:17.529Z,81.80
2022-10-02T00:16:33.877Z,81.90
2022-10-02T00:19:39.707Z,82.10
2022-10-02T00:22:53.204Z,82.10
2022-10-02T00:26:02.418Z,82.20
2022-10-02T00:29:17.145Z,82.10
2022-10-02T00:32:30.417Z,82.20
2022-10-02T00:35:57.974Z,82.30
2022-10-02T00:39:05.989Z,82.40
2022-10-02T00:42:35.643Z,82.30
2022-10-02T00:45:53.224Z,82.50
2022-10-02T00:49:12.495Z,82.40
2022-10-02T00:52:41.518Z,82.50
2022-10-02T00:55:58.508Z,82.60
2022-10-02T00:59:17.797Z,82.60
2022-10-02T01:02:44.597Z,82.70
2022-10-02T01:05:48.285Z,82.80
2022-10-02T01:08:53.861Z,82.60
2022-10-02T01:11:58.352Z,83.30
2022-10-02T01:15:02.096Z,82.70
2022-10-02T01:18:07.688Z,82.80
2022-10-02T01:21:16.369Z,82.90
2022-10-02T01:24:27.699Z,83.00
2022-10-02T01:27:38.144Z,83.00
2022-10-02T01:30:45.911Z,83.00
2022-10-02T01:33:50.027Z,83.10
2022-10-02T01:36:53.778Z,83.10
2022-10-02T01:40:00.389Z,83.10
2022-10-02T01:43:09.044Z,83.10
2022-10-02T01:46:26.090Z,83.20
2022-10-02T01:49:47.315Z,83.30
2022-10-02T01:53:00.579Z,83.30
2022-10-02T01:56:11.001Z,83.30
2022-10-02T01:59:25.854Z,83.30
2022-10-02T02:02:43.710Z,83.40
2022-10-02T02:05:51.548Z,83.30
2022-10-02T02:09:03.488Z,83.30
2022-10-02T02:12:14.026Z,83.30
2022-10-02T02:15:25.102Z,83.30
2022-10-02T02:18:35.251Z,83.30
2022-10-02T02:21:43.114Z,83.30
2022-10-02T02:24:53.052Z,83.30
2022-10-02T02:28:01.426Z,83.20
2022-10-02T02:31:09.686Z,83.30
2022-10-02T02:34:17.331Z,83.20
2022-10-02T02:37:24.696Z,83.20
2022-10-02T02:40:32.065Z,83.20
2022-10-02T02:43:43.831Z,83.20
2022-10-02T02:47:06.395Z,83.20
2022-10-02T02:50:17.699Z,83.30
2022-10-02T02:53:25.197Z,83.30
2022-10-02T02:56:31.086Z,83.20
2022-10-02T02:59:37.536Z,83.20
2022-10-02T03:02:43.145Z,83.30
2022-10-02T03:05:51.379Z,83.30
2022-10-02T03:08:55.550Z,83.30
2022-10-02T03:12:10.614Z,83.30
2022-10-02T03:15:34.086Z,83.40
2022-10-02T03:18:53.626Z,83.50
2022-10-02T03:22:05.974Z,83.40
2022-10-02T03:25:15.146Z,83.50
2022-10-02T03:28:37.611Z,83.40
2022-10-02T03:31:47.565Z,83.40
2022-10-02T03:34:54.539Z,83.40
2022-10-02T03:38:01.684Z,83.40
2022-10-02T03:41:05.447Z,83.50
2022-10-02T03:44:09.183Z,83.50
2022-10-02T03:47:12.781Z,83.40
2022-10-02T03:50:18.830Z,83.50
2022-10-02T03:53:25.939Z,83.50
2022-10-02T03:56:38.126Z,83.60
2022-10-02T03:59:47.824Z,83.60
2022-10-02T04:02:57.899Z,83.60
2022-10-02T04:06:07.945Z,83.60
2022-10-02T04:09:16.131Z,83.70
2022-10-02T04:12:24.781Z,83.70
2022-10-02T04:15:34.156Z,83.80
2022-10-02T04:18:42.660Z,83.80
2022-10-02T04:21:53.936Z,83.90
2022-10-02T04:25:03.358Z,84.00
2022-10-02T04:28:11.643Z,84.00
2022-10-02T04:31:16.197Z,84.00
2022-10-02T04:34:20.023Z,84.00
2022-10-02T04:37:48.237Z,84.00
2022-10-02T04:41:03.993Z,84.20
2022-10-02T04:44:21.138Z,84.10
2022-10-02T04:47:48.165Z,84.20
2022-10-02T04:51:00.682Z,84.30
2022-10-02T04:54:29.842Z,84.20
2022-10-02T04:57:50.341Z,84.30
2022-10-02T05:01:02.626Z,84.30
2022-10-02T05:04:31.771Z,84.30
2022-10-02T05:08:13.310Z,84.40
2022-10-02T05:11:31.360Z,84.40
2022-10-02T05:15:26.074Z,84.30
2022-10-02T05:18:50.319Z,84.50
2022-10-02T05:22:11.494Z,84.30
2022-10-02T05:25:36.418Z,84.40
2022-10-02T05:29:04.642Z,84.50
2022-10-02T05:32:32.873Z,84.50
2022-10-02T05:36:04.713Z,84.60
2022-10-02T05:39:13.474Z,84.60
2022-10-02T05:42:23.840Z,84.50
2022-10-02T05:45:36.198Z,84.60
2022-10-02T05:48:45.820Z,84.60
2022-10-02T05:51:58.624Z,84.60
2022-10-02T05:55:09.247Z,84.60
2022-10-02T05:58:18.164Z,84.70
2022-10-02T06:01:27.961Z,84.70
2022-10-02T06:04:37.423Z,84.80
2022-10-02T06:07:43.714Z,84.80
2022-10-02T06:10:50.927Z,84.90
2022-10-02T06:13:59.842Z,84.90
2022-10-02T06:17:11.127Z,84.90
2022-10-02T06:20:21.297Z,85.00
2022-10-02T06:23:29.258Z,85.00
2022-10-02T06:26:41.329Z,85.00
2022-10-02T06:29:51.517Z,85.10
2022-10-02T06:33:02.827Z,85.20
2022-10-02T06:36:42.238Z,85.20
2022-10-02T06:40:13.252Z,85.40
2022-10-02T06:43:33.752Z,85.40
2022-10-02T06:46:50.621Z,85.30
2022-10-02T06:50:20.699Z,85.40
2022-10-02T06:53:58.164Z,85.50
2022-10-02T06:57:20.377Z,85.60
2022-10-02T07:00:24.833Z,85.60
2022-10-02T07:03:48.877Z,85.50
2022-10-02T07:07:12.394Z,85.70
2022-10-02T07:10:35.822Z,85.60
2022-10-02T07:13:59.338Z,85.70
2022-10-02T07:17:32.419Z,85.80
2022-10-02T07:20:43.250Z,85.90
2022-10-02T07:24:01.429Z,85.70
2022-10-02T07:27:17.471Z,85.90
2022-10-02T07:30:21.173Z,85.90
2022-10-02T07:33:35.699Z,86.50
2022-10-02T07:36:50.429Z,86.70
2022-10-02T07:40:11.457Z,86.10
2022-10-02T07:43:46.456Z,86.30
2022-10-02T07:46:58.154Z,86.40
2022-10-02T07:50:11.917Z,86.30
2022-10-02T07:53:21.443Z,86.40
2022-10-02T07:56:28.094Z,86.40
2022-10-02T07:59:33.471Z,86.40
2022-10-02T08:02:41.637Z,86.50
2022-10-02T08:05:48.134Z,86.60
2022-10-02T08:08:55.266Z,86.50
2022-10-02T08:12:06.663Z,86.60
2022-10-02T08:15:18.493Z,86.60
2022-10-02T08:18:34.737Z,86.70
2022-10-02T08:21:43.982Z,86.70
2022-10-02T08:24:53.250Z,86.60
2022-10-02T08:28:04.198Z,86.50
2022-10-02T08:31:12.387Z,86.70
2022-10-02T08:34:20.350Z,86.70
2022-10-02T08:37:38.614Z,86.60
2022-10-02T08:41:11.106Z,86.60
2022-10-02T08:44:51.183Z,86.60
2022-10-02T08:48:26.658Z,86.50
2022-10-02T08:52:02.834Z,86.30
2022-10-02T08:55:35.057Z,86.20
2022-10-02T08:59:05.494Z,86.20
2022-10-02T09:02:45.633Z,86.20
2022-10-02T09:06:27.358Z,86.20
2022-10-02T09:10:12.844Z,86.20
2022-10-02T09:13:42.628Z,86.10
2022-10-02T09:17:11.392Z,86.00
2022-10-02T09:20:42.772Z,85.70
2022-10-02T09:24:25.770Z,85.60
2022-10-02T09:28:10.717Z,85.40
2022-10-02T09:31:22.273Z,85.30
2022-10-02T09:35:06.199Z,85.10
2022-10-02T09:38:44.219Z,85.00
2022-10-02T09:42:20.291Z,84.70
2022-10-02T09:45:43.278Z,84.60
2022-10-02T09:49:25.674Z,84.40
2022-10-02T09:53:02.292Z,84.30
2022-10-02T09:56:44.962Z,84.00
2022-10-02T10:00:12.857Z,83.80
2022-10-02T10:03:35.834Z,83.60
2022-10-02T10:07:01.744Z,83.40
2022-10-02T10:10:29.397Z,83.10
2022-10-02T10:14:01.159Z,82.90
2022-10-02T10:17:31.223Z,82.50
2022-10-02T10:20:58.704Z,82.30
2022-10-02T10:24:37.381Z,82.10
2022-10-02T10:28:06.186Z,81.90
2022-10-02T10:31:43.039Z,81.70
2022-10-02T10:35:21.698Z,81.30
2022-10-02T10:38:38.527Z,80.70
2022-10-02T10:42:14.013Z,80.50
2022-10-02T10:45:32.577Z,80.80
2022-10-02T10:48:53.628Z,80.10
2022-10-02T10:52:06.957Z,79.80
2022-10-02T10:55:16.554Z,79.80
2022-10-02T10:58:28.141Z,79.70
2022-10-02T11:01:42.377Z,79.50
2022-10-02T11:05:15.820Z,79.30
2022-10-02T11:08:44.773Z,78.70
2022-10-02T11:12:08.821Z,78.60
2022-10-02T11:15:36.889Z,78.20
2022-10-02T11:19:04.469Z,77.70
2022-10-02T11:22:37.726Z,77.50
2022-10-02T11:25:53.957Z,77.20
2022-10-02T11:29:34.111Z,77.30
2022-10-02T11:32:58.145Z,76.80
2022-10-02T11:36:43.008Z,76.70
2022-10-02T11:39:59.894Z,76.50
2022-10-02T11:43:36.359Z,77.20
2022-10-02T11:47:13.801Z,76.70
2022-10-02T11:50:46.673Z,76.40
2022-10-02T11:54:04.669Z,76.00
2022-10-02T11:57:33.830Z,76.10
2022-10-02T12:01:07.360Z,75.50
2022-10-02T12:04:35.381Z,75.30
2022-10-02T12:07:47.459Z,75.30
2022-10-02T12:10:59.352Z,75.50
2022-10-02T12:14:15.945Z,75.20
2022-10-02T12:17:52.632Z,74.90
2022-10-02T12:21:22.961Z,74.50
2022-10-02T12:24:56.121Z,74.60
2022-10-02T12:28:09.826Z,74.70
2022-10-02T12:31:24.418Z,74.60
2022-10-02T12:34:40.421Z,74.40
2022-10-02T12:37:53.664Z,74.30
2022-10-02T12:41:08.352Z,74.40
2022-10-02T12:44:45.358Z,74.40
2022-10-02T12:48:22.657Z,74.10
2022-10-02T12:51:38.140Z,74.10
2022-10-02T12:55:26.775Z,74.10
2022-10-02T12:58:40.474Z,74.00
2022-10-02T13:02:10.012Z,74.30
2022-10-02T13:05:50.021Z,74.00
2022-10-02T13:09:10.599Z,73.90
2022-10-02T13:12:37.439Z,74.00
2022-10-02T13:15:50.329Z,73.70
2022-10-02T13:19:10.680Z,73.90
2022-10-02T13:22:22.457Z,73.80
2022-10-02T13:25:49.067Z,73.80
2022-10-02T13:29:23.857Z,73.80
2022-10-02T13:32:48.048Z,73.60
2022-10-02T13:36:03.750Z,74.10
2022-10-02T13:39:43.377Z,73.70
2022-10-02T13:43:08.550Z,73.30
2022-10-02T13:46:30.074Z,73.20
2022-10-02T13:49:46.343Z,72.90
2022-10-02T13:53:05.806Z,72.80
2022-10-02T13:56:25.857Z,72.60
2022-10-02T13:59:46.378Z,72.50
2022-10-02T14:03:04.043Z,72.40
2022-10-02T14:06:15.755Z,72.40
2022-10-02T14:09:34.136Z,72.20
2022-10-02T14:12:53.342Z,71.90
2022-10-02T14:16:14.458Z,71.80
2022-10-02T14:19:44.442Z,71.80
2022-10-02T14:23:04.010Z,71.80
2022-10-02T14:26:18.359Z,71.80
2022-10-02T14:29:36.607Z,71.90
2022-10-02T14:32:55.245Z,71.80
2022-10-02T14:36:06.600Z,71.70
2022-10-02T14:39:21.839Z,71.80
2022-10-02T14:42:40.254Z,71.70
2022-10-02T14:46:21.242Z,71.70
2022-10-02T14:49:39.747Z,71.50
2022-10-02T14:53:10.411Z,71.60
2022-10-02T14:56:41.703Z,71.40
2022-10-02T15:00:02.378Z,71.50
2022-10-02T15:03:31.009Z,71.50
2022-10-02T15:06:48.973Z,71.40
2022-10-02T15:10:06.752Z,71.40
2022-10-02T15:13:17.682Z,71.40
2022-10-02T15:16:39.905Z,71.40
2022-10-02T15:19:51.675Z,71.80
2022-10-02T15:22:58.864Z,71.30
2022-10-02T15:26:19.189Z,71.40
2022-10-02T15:29:33.417Z,71.30
2022-10-02T15:32:51.655Z,71.30
2022-10-02T15:36:16.678Z,71.60
2022-10-02T15:39:54.869Z,71.50
2022-10-02T15:43:03.341Z,71.30
2022-10-02T15:46:16.733Z,71.60
2022-10-02T15:49:35.903Z,71.40
2022-10-02T15:52:52.541Z,71.60
2022-10-02T15:56:06.477Z,71.60
2022-10-02T15:59:32.324Z,71.70
2022-10-02T16:02:50.704Z,71.70
2022-10-02T16:05:58.557Z,71.80
2022-10-02T16:09:30.842Z,71.70
2022-10-02T16:12:45.016Z,71.60
2022-10-02T16:15:53.845Z,71.80
2022-10-02T16:19:07.582Z,71.80
2022-10-02T16:22:30.990Z,71.80
2022-10-02T16:25:56.182Z,71.80
2022-10-02T16:29:16.150Z,71.70
2022-10-02T16:32:30.430Z,71.80
2022-10-02T16:35:48.894Z,71.90
2022-10-02T16:38:57.714Z,72.00
2022-10-02T16:42:14.532Z,72.00
2022-10-02T16:45:32.005Z,72.00
2022-10-02T16:48:48.915Z,71.90
2022-10-02T16:51:59.134Z,71.90
2022-10-02T16:55:14.879Z,72.00
2022-10-02T16:58:26.426Z,72.00
2022-10-02T17:01:35.586Z,72.00
2022-10-02T17:04:49.458Z,72.10
2022-10-02T17:08:03.308Z,72.20
2022-10-02T17:11:22.631Z,72.20
2022-10-02T17:14:37.018Z,72.30
2022-10-02T17:17:56.525Z,72.30
2022-10-02T17:21:09.569Z,72.40
2022-10-02T17:24:26.239Z,72.40
2022-10-02T17:27:42.586Z,72.50
2022-10-02T17:30:58.406Z,72.50
2022-10-02T17:34:13.120Z,72.60
2022-10-02T17:37:48.303Z,72.80
2022-10-02T17:41:05.484Z,72.80
2022-10-02T17:44:18.928Z,72.80
2022-10-02T17:47:58.026Z,72.90
2022-10-02T17:51:51.853Z,72.90
2022-10-02T17:55:25.621Z,72.90
2022-10-02T17:58:39.126Z,73.00
2022-10-02T18:01:49.735Z,73.10
2022-10-02T18:05:16.147Z,73.10
2022-10-02T18:08:46.703Z,73.20
2022-10-02T18:12:20.082Z,73.30
2022-10-02T18:15:50.106Z,73.40
2022-10-02T18:19:09.506Z,73.40
2022-10-02T18:22:38.749Z,73.40
2022-10-02T18:25:57.150Z,73.60
2022-10-02T18:29:14.423Z,73.60
2022-10-02T18:32:35.647Z,73.70
2022-10-02T18:35:50.869Z,73.80
2022-10-02T18:39:00.970Z,73.90
2022-10-02T18:42:29.329Z,73.90
2022-10-02T18:45:47.726Z,73.90
2022-10-02T18:49:08.507Z,74.00
2022-10-02T18:52:41.548Z,74.10
2022-10-02T18:56:03.573Z,74.10
2022-10-02T18:59:23.100Z,74.20
2022-10-02T19:02:43.117Z,74.20
2022-10-02T19:05:52.177Z,74.40
2022-10-02T19:09:04.771Z,74.50
2022-10-02T19:12:18.375Z,74.50
2022-10-02T19:15:26.500Z,74.60
2022-10-02T19:18:32.287Z,74.60
2022-10-02T19:21:37.708Z,74.70
2022-10-02T19:24:45.118Z,74.70
2022-10-02T19:27:55.447Z,74.70
2022-10-02T19:31:02.934Z,74.80
2022-10-02T19:34:13.331Z,74.90
2022-10-02T19:37:22.316Z,74.80
2022-10-02T19:40:28.529Z,74.90
2022-10-02T19:43:35.387Z,74.90
2022-10-02T19:46:42.481Z,75.00
2022-10-02T19:49:50.489Z,75.00
2022-10-02T19:52:56.253Z,75.10
2022-10-02T19:56:03.334Z,75.10
2022-10-02T19:59:15.550Z,75.20
2022-10-02T20:02:25.691Z,75.20
2022-10-02T20:05:32.935Z,75.20
2022-10-02T20:08:43.296Z,75.30
2022-10-02T20:11:50.906Z,75.50
2022-10-02T20:15:04.093Z,75.50
2022-10-02T20:18:06.363Z,75.60
2022-10-02T20:21:18.878Z,75.60
2022-10-02T20:24:30.658Z,75.70
2022-10-02T20:27:41.632Z,75.70
2022-10-02T20:30:50.692Z,76.40
2022-10-02T20:33:59.018Z,75.80
2022-10-02T20:37:06.859Z,75.80
2022-10-02T20:40:16.765Z,75.90
2022-10-02T20:43:23.367Z,75.80
2022-10-02T20:47:01.479Z,75.90
2022-10-02T20:50:27.980Z,76.10
2022-10-02T20:54:10.337Z,76.00
2022-10-02T20:58:06.495Z,76.10
2022-10-02T21:01:18.788Z,76.00
2022-10-02T21:04:50.918Z,76.00
2022-10-02T21:08:15.194Z,76.10
2022-10-02T21:11:40.340Z,76.10
2022-10-02T21:15:10.355Z,76.10
2022-10-02T21:18:47.283Z,76.30
2022-10-02T21:22:29.765Z,76.40
2022-10-02T21:25:53.332Z,76.40
2022-10-02T21:29:25.530Z,77.10
2022-10-02T21:32:55.431Z,76.50
2022-10-02T21:36:06.855Z,76.50
2022-10-02T21:39:40.234Z,76.60
2022-10-02T21:43:20.238Z,76.70
2022-10-02T21:46:54.037Z,76.70
2022-10-02T21:50:39.138Z,76.80
2022-10-02T21:53:59.966Z,76.90
2022-10-02T21:57:39.631Z,76.80
2022-10-02T22:01:07.899Z,76.80
2022-10-02T22:04:40.727Z,76.90
2022-10-02T22:07:50.103Z,77.00
2022-10-02T22:11:03.338Z,76.90
2022-10-02T22:14:11.949Z,77.00
2022-10-02T22:17:26.829Z,77.00
2022-10-02T22:20:44.634Z,77.10
2022-10-02T22:24:07.797Z,77.20
2022-10-02T22:27:43.182Z,77.20
2022-10-02T22:31:12.025Z,77.30
2022-10-02T22:34:32.138Z,77.20
2022-10-02T22:37:56.075Z,77.30
2022-10-02T22:41:07.509Z,77.40
2022-10-02T22:44:21.270Z,77.30
2022-10-02T22:47:32.615Z,77.40
2022-10-02T22:50:47.752Z,77.50
2022-10-02T22:53:56.935Z,77.60
2022-10-02T22:57:12.154Z,77.60
2022-10-02T23:00:20.122Z,77.80
2022-10-02T23:03:31.002Z,77.70
2022-10-02T23:06:45.734Z,77.80
2022-10-02T23:09:53.081Z,78.00
2022-10-02T23:13:05.138Z,78.00
2022-10-02T23:16:15.532Z,78.00
2022-10-02T23:19:26.422Z,78.10
2022-10-02T23:22:37.098Z,78.10
2022-10-02T23:25:45.718Z,78.20
2022-10-02T23:28:54.487Z,78.20
2022-10-02T23:32:02.371Z,78.30
2022-10-02T23:35:12.665Z,78.20
2022-10-02T23:38:23.118Z,78.30
2022-10-02T23:41:39.894Z,78.30
2022-10-02T23:44:49.202Z,78.30
2022-10-02T23:48:00.117Z,78.40
2022-10-02T23:51:15.884Z,78.50
2022-10-02T23:54:40.934Z,78.50
2022-10-02T23:58:07.548Z,78.60
